Grand Forks International Airport

Airport
ICAO code: 
KGFK
Summary
ICAO Region: 
NAM
Territory: 
Location: 
Grand Forks, North Dakota,
Elevation: 
845 ft
Coordinates: 
Aerial View: 
47° 57' 3.752" N, 97° 10' 14.525" W
Airport CFIT: 
Altimeter Temperature Error Correction
Airport GND: 
Aircraft Ground De/Anti Icing
Airport LOS: 
Parallel Runway Operation
Airport RE: 
Landing on Contaminated Runways
Airport WX: 
Cumulonimbus
Metar
Observation
KGFK 020853Z AUTO 30010KT 10SM CLR 02/M02 A2976 RMK AO2 SLP085 T00171017 51035
Station
Grand Forks, Grand Forks International Airport
Date/Time
2021-12-02 08:53:00
Wind direction
300°
Wind speed
10 kts
Lowest cloud amount
n/a
Temperature
1.7°C
Dew point
-1.7°C
Humidity
78%
Weather condition
n/a

Description

Grand Forks International Airport is a public use airport located 8 km northwest of the central business district of Grand Forks, a city in Grand Forks County, North Dakota.

Climatology

Humid Continental climate (Köppen climate classification Dfb) - Variable weather patterns and a large seasonal temperature variance. Summers are often warm and humid with frequent thunderstorms and winters can be very cold with frequent snowfall and persistent snow cover.

Runways

Designator Length Width Surface Rops
09R/27L 1006 18 CON Yes/Yes
17L/35R 1189 23 CON Yes/Yes
09L/27R 1282 30 CONC-G Yes/Yes
17R/35L 2240 46 ASP Yes/Yes
Airport map: 
Aerial View: 

SKYbrary Partners:

Safety knowledge contributed by: